Flight Briefing for CPX313

Departure Arrival
Chicago/Rockford International Airport (KRFD)
Click to view FAA NOTAMS
Washington Dulles International Airport (KIAD)
Click to view FAA NOTAMS
Departure Time Arrival Time
N/A N/A
Aircraft Distance
B767-300BDSF 626nm
Departure METAR Arrival METAR
KRFD 152054Z 32015KT 10SM BKN250 M09/M14 A2999 RMK AO2 SLP171 T10891144 58005 KIAD 152052Z 20013KT 10SM FEW045 SCT140 BKN200 16/04 A2964 RMK AO2 SLP035 T01560039 56010
Suggested Route
JOT J60 JERRI NUSMM MGW GIBBZ2


View recent IFR Routes data
Notes



Charts and Procedures

Charts for KRFD
No chart available
Charts for KIAD
No chart available

Ventusky Weather